sensor_id;sensor_type;location;lat;lon;timestamp;temperature;humidity
64620;DHT22;51029;51.058;13.826;2023-08-06T00:00:37;16.20;99.90
64620;DHT22;51029;51.058;13.826;2023-08-06T00:03:03;16.30;99.90
64620;DHT22;51029;51.058;13.826;2023-08-06T00:05:29;16.30;99.90
64620;DHT22;51029;51.058;13.826;2023-08-06T00:07:55;16.30;99.90
64620;DHT22;51029;51.058;13.826;2023-08-06T00:10:20;16.30;99.90
64620;DHT22;51029;51.058;13.826;2023-08-06T00:12:46;16.40;99.90
64620;DHT22;51029;51.058;13.826;2023-08-06T00:15:11;16.40;99.90
64620;DHT22;51029;51.058;13.826;2023-08-06T00:17:37;16.30;99.90
64620;DHT22;51029;51.058;13.826;2023-08-06T00:20:04;16.30;99.90
64620;DHT22;51029;51.058;13.826;2023-08-06T00:22:35;16.30;99.90
64620;DHT22;51029;51.058;13.826;2023-08-06T00:25:02;16.20;99.90
64620;DHT22;51029;51.058;13.826;2023-08-06T00:27:27;16.20;99.90
64620;DHT22;51029;51.058;13.826;2023-08-06T00:29:53;16.20;99.90
64620;DHT22;51029;51.058;13.826;2023-08-06T00:32:19;16.20;99.90
64620;DHT22;51029;51.058;13.826;2023-08-06T00:34:44;16.20;99.90
64620;DHT22;51029;51.058;13.826;2023-08-06T00:37:10;16.20;99.90
64620;DHT22;51029;51.058;13.826;2023-08-06T00:39:35;16.10;99.90
64620;DHT22;51029;51.058;13.826;2023-08-06T00:42:01;16.20;99.90
64620;DHT22;51029;51.058;13.826;2023-08-06T00:44:26;16.20;99.90
64620;DHT22;51029;51.058;13.826;2023-08-06T00:46:52;16.20;99.90
64620;DHT22;51029;51.058;13.826;2023-08-06T00:49:18;16.20;99.90
64620;DHT22;51029;51.058;13.826;2023-08-06T00:51:44;16.10;99.90
64620;DHT22;51029;51.058;13.826;2023-08-06T00:54:10;16.20;99.90
64620;DHT22;51029;51.058;13.826;2023-08-06T00:56:36;16.20;99.90
64620;DHT22;51029;51.058;13.826;2023-08-06T00:59:05;16.20;99.90
64620;DHT22;51029;51.058;13.826;2023-08-06T01:01:31;16.20;99.90
64620;DHT22;51029;51.058;13.826;2023-08-06T01:03:57;16.10;99.90
64620;DHT22;51029;51.058;13.826;2023-08-06T01:06:41;16.10;99.90
64620;DHT22;51029;51.058;13.826;2023-08-06T01:12:19;16.10;99.90
64620;DHT22;51029;51.058;13.826;2023-08-06T01:15:10;16.10;99.90
64620;DHT22;51029;51.058;13.826;2023-08-06T01:17:37;16.10;99.90
64620;DHT22;51029;51.058;13.826;2023-08-06T01:20:03;16.00;99.90
64620;DHT22;51029;51.058;13.826;2023-08-06T01:22:29;16.00;99.90
64620;DHT22;51029;51.058;13.826;2023-08-06T01:24:55;16.00;99.90
64620;DHT22;51029;51.058;13.826;2023-08-06T01:30:09;16.00;99.90
64620;DHT22;51029;51.058;13.826;2023-08-06T01:32:39;16.00;99.90
64620;DHT22;51029;51.058;13.826;2023-08-06T01:35:09;16.00;99.90
64620;DHT22;51029;51.058;13.826;2023-08-06T01:37:36;16.00;99.90
64620;DHT22;51029;51.058;13.826;2023-08-06T01:40:07;16.00;99.90
64620;DHT22;51029;51.058;13.826;2023-08-06T01:42:35;15.90;99.90
64620;DHT22;51029;51.058;13.826;2023-08-06T01:45:00;15.90;99.90
64620;DHT22;51029;51.058;13.826;2023-08-06T01:47:26;15.80;99.90
64620;DHT22;51029;51.058;13.826;2023-08-06T01:49:51;15.80;99.90
64620;DHT22;51029;51.058;13.826;2023-08-06T01:52:17;15.70;99.90
64620;DHT22;51029;51.058;13.826;2023-08-06T01:54:42;15.70;99.90
64620;DHT22;51029;51.058;13.826;2023-08-06T01:57:08;15.70;99.90
64620;DHT22;51029;51.058;13.826;2023-08-06T01:59:33;15.60;99.90
64620;DHT22;51029;51.058;13.826;2023-08-06T02:01:59;15.60;99.90
64620;DHT22;51029;51.058;13.826;2023-08-06T02:04:24;15.60;99.90
64620;DHT22;51029;51.058;13.826;2023-08-06T02:06:50;15.60;99.90
64620;DHT22;51029;51.058;13.826;2023-08-06T02:09:15;15.60;99.90
64620;DHT22;51029;51.058;13.826;2023-08-06T02:11:41;15.60;99.90
64620;DHT22;51029;51.058;13.826;2023-08-06T02:14:06;15.60;99.90
64620;DHT22;51029;51.058;13.826;2023-08-06T02:16:32;15.60;99.90
64620;DHT22;51029;51.058;13.826;2023-08-06T02:18:57;15.70;99.90
64620;DHT22;51029;51.058;13.826;2023-08-06T02:21:23;15.80;99.90
64620;DHT22;51029;51.058;13.826;2023-08-06T02:23:48;15.80;99.90
64620;DHT22;51029;51.058;13.826;2023-08-06T02:26:14;15.90;99.90
64620;DHT22;51029;51.058;13.826;2023-08-06T02:28:39;15.90;99.90
64620;DHT22;51029;51.058;13.826;2023-08-06T02:31:05;15.90;99.90
64620;DHT22;51029;51.058;13.826;2023-08-06T02:33:32;15.90;99.90
64620;DHT22;51029;51.058;13.826;2023-08-06T02:36:04;15.80;99.90
64620;DHT22;51029;51.058;13.826;2023-08-06T02:38:33;15.80;99.90
64620;DHT22;51029;51.058;13.826;2023-08-06T02:40:59;15.80;99.90
64620;DHT22;51029;51.058;13.826;2023-08-06T02:43:24;15.80;99.90
64620;DHT22;51029;51.058;13.826;2023-08-06T02:45:50;15.80;99.90
64620;DHT22;51029;51.058;13.826;2023-08-06T02:48:15;15.80;99.90
64620;DHT22;51029;51.058;13.826;2023-08-06T02:50:43;15.80;99.90
64620;DHT22;51029;51.058;13.826;2023-08-06T02:53:09;15.80;99.90
64620;DHT22;51029;51.058;13.826;2023-08-06T02:55:35;15.80;99.90
64620;DHT22;51029;51.058;13.826;2023-08-06T02:58:01;15.70;99.90
64620;DHT22;51029;51.058;13.826;2023-08-06T03:00:27;15.70;99.90
64620;DHT22;51029;51.058;13.826;2023-08-06T03:02:54;15.60;99.90
64620;DHT22;51029;51.058;13.826;2023-08-06T03:05:19;15.60;99.90
64620;DHT22;51029;51.058;13.826;2023-08-06T03:07:45;15.60;99.90
64620;DHT22;51029;51.058;13.826;2023-08-06T03:10:10;15.70;99.90
64620;DHT22;51029;51.058;13.826;2023-08-06T03:12:36;15.60;99.90
64620;DHT22;51029;51.058;13.826;2023-08-06T03:15:02;15.60;99.90
64620;DHT22;51029;51.058;13.826;2023-08-06T03:17:27;15.60;99.90
64620;DHT22;51029;51.058;13.826;2023-08-06T03:19:53;15.60;99.90
64620;DHT22;51029;51.058;13.826;2023-08-06T03:22:18;15.50;99.90
64620;DHT22;51029;51.058;13.826;2023-08-06T03:24:44;15.60;99.90
64620;DHT22;51029;51.058;13.826;2023-08-06T03:27:09;15.60;99.90
64620;DHT22;51029;51.058;13.826;2023-08-06T03:29:35;15.60;99.90
64620;DHT22;51029;51.058;13.826;2023-08-06T03:32:00;15.70;99.90
64620;DHT22;51029;51.058;13.826;2023-08-06T03:34:26;15.70;99.90
64620;DHT22;51029;51.058;13.826;2023-08-06T03:36:51;15.70;99.90
64620;DHT22;51029;51.058;13.826;2023-08-06T03:39:17;15.70;99.90
64620;DHT22;51029;51.058;13.826;2023-08-06T03:41:42;15.80;99.90
64620;DHT22;51029;51.058;13.826;2023-08-06T03:44:08;15.70;99.90
64620;DHT22;51029;51.058;13.826;2023-08-06T03:46:33;15.70;99.90
64620;DHT22;51029;51.058;13.826;2023-08-06T03:48:59;15.60;99.90
64620;DHT22;51029;51.058;13.826;2023-08-06T03:51:25;15.70;99.90
64620;DHT22;51029;51.058;13.826;2023-08-06T03:53:51;15.70;99.90
64620;DHT22;51029;51.058;13.826;2023-08-06T03:56:16;15.70;99.90
64620;DHT22;51029;51.058;13.826;2023-08-06T03:58:42;15.70;99.90
64620;DHT22;51029;51.058;13.826;2023-08-06T04:01:07;15.70;99.90
64620;DHT22;51029;51.058;13.826;2023-08-06T04:03:33;15.70;99.90
64620;DHT22;51029;51.058;13.826;2023-08-06T04:05:59;15.70;99.90
64620;DHT22;51029;51.058;13.826;2023-08-06T04:08:26;15.70;99.90
64620;DHT22;51029;51.058;13.826;2023-08-06T04:10:52;15.70;99.90
64620;DHT22;51029;51.058;13.826;2023-08-06T04:13:18;15.70;99.90
64620;DHT22;51029;51.058;13.826;2023-08-06T04:15:44;15.80;99.90
64620;DHT22;51029;51.058;13.826;2023-08-06T04:18:09;15.80;99.90
64620;DHT22;51029;51.058;13.826;2023-08-06T04:20:35;15.80;99.90
64620;DHT22;51029;51.058;13.826;2023-08-06T04:23:07;15.80;99.90
64620;DHT22;51029;51.058;13.826;2023-08-06T04:25:32;15.80;99.90
64620;DHT22;51029;51.058;13.826;2023-08-06T04:27:58;15.90;99.90
64620;DHT22;51029;51.058;13.826;2023-08-06T04:30:23;15.80;99.90
64620;DHT22;51029;51.058;13.826;2023-08-06T04:32:50;15.90;99.90
64620;DHT22;51029;51.058;13.826;2023-08-06T04:35:16;15.90;99.90
64620;DHT22;51029;51.058;13.826;2023-08-06T04:37:41;15.80;99.90
64620;DHT22;51029;51.058;13.826;2023-08-06T04:40:07;15.80;99.90
64620;DHT22;51029;51.058;13.826;2023-08-06T04:42:33;15.80;99.90
64620;DHT22;51029;51.058;13.826;2023-08-06T04:44:58;15.90;99.90
64620;DHT22;51029;51.058;13.826;2023-08-06T04:47:24;15.90;99.90
64620;DHT22;51029;51.058;13.826;2023-08-06T04:49:51;15.90;99.90
64620;DHT22;51029;51.058;13.826;2023-08-06T04:52:16;16.00;99.90
64620;DHT22;51029;51.058;13.826;2023-08-06T04:54:43;16.00;99.90
64620;DHT22;51029;51.058;13.826;2023-08-06T04:57:09;16.00;99.90
64620;DHT22;51029;51.058;13.826;2023-08-06T04:59:35;16.00;99.90
64620;DHT22;51029;51.058;13.826;2023-08-06T05:02:00;16.00;99.90
64620;DHT22;51029;51.058;13.826;2023-08-06T05:04:26;16.00;99.90
64620;DHT22;51029;51.058;13.826;2023-08-06T05:06:52;16.00;99.90
64620;DHT22;51029;51.058;13.826;2023-08-06T05:09:18;16.10;99.90
64620;DHT22;51029;51.058;13.826;2023-08-06T05:11:43;16.10;99.90
64620;DHT22;51029;51.058;13.826;2023-08-06T05:14:09;16.10;99.90
64620;DHT22;51029;51.058;13.826;2023-08-06T05:16:34;16.20;99.90
64620;DHT22;51029;51.058;13.826;2023-08-06T05:19:00;16.20;99.90
64620;DHT22;51029;51.058;13.826;2023-08-06T05:21:25;16.10;99.90
64620;DHT22;51029;51.058;13.826;2023-08-06T05:23:51;16.10;99.90
64620;DHT22;51029;51.058;13.826;2023-08-06T05:26:17;16.20;99.90
64620;DHT22;51029;51.058;13.826;2023-08-06T05:28:44;16.10;99.90
64620;DHT22;51029;51.058;13.826;2023-08-06T05:31:11;16.20;99.90
64620;DHT22;51029;51.058;13.826;2023-08-06T05:33:36;16.20;99.90
64620;DHT22;51029;51.058;13.826;2023-08-06T05:36:02;16.20;99.90
64620;DHT22;51029;51.058;13.826;2023-08-06T05:38:29;16.20;99.90
64620;DHT22;51029;51.058;13.826;2023-08-06T05:40:54;16.20;99.90
64620;DHT22;51029;51.058;13.826;2023-08-06T05:43:20;16.20;99.90
64620;DHT22;51029;51.058;13.826;2023-08-06T05:45:46;16.20;99.90
64620;DHT22;51029;51.058;13.826;2023-08-06T05:48:12;16.20;99.90
64620;DHT22;51029;51.058;13.826;2023-08-06T05:50:38;16.20;99.90
64620;DHT22;51029;51.058;13.826;2023-08-06T05:53:03;16.20;99.90
64620;DHT22;51029;51.058;13.826;2023-08-06T05:55:29;16.30;99.90
64620;DHT22;51029;51.058;13.826;2023-08-06T05:57:54;16.30;99.90
64620;DHT22;51029;51.058;13.826;2023-08-06T06:00:21;16.40;99.90
64620;DHT22;51029;51.058;13.826;2023-08-06T06:02:47;16.40;99.90
64620;DHT22;51029;51.058;13.826;2023-08-06T06:05:12;16.50;99.90
64620;DHT22;51029;51.058;13.826;2023-08-06T06:07:38;16.40;99.90
64620;DHT22;51029;51.058;13.826;2023-08-06T06:10:04;16.50;99.90
64620;DHT22;51029;51.058;13.826;2023-08-06T06:12:29;16.60;99.90
64620;DHT22;51029;51.058;13.826;2023-08-06T06:14:55;16.60;99.90
64620;DHT22;51029;51.058;13.826;2023-08-06T06:17:21;16.60;99.90
64620;DHT22;51029;51.058;13.826;2023-08-06T06:19:46;16.60;99.90
64620;DHT22;51029;51.058;13.826;2023-08-06T06:22:12;16.70;99.90
64620;DHT22;51029;51.058;13.826;2023-08-06T06:24:37;16.80;99.90
64620;DHT22;51029;51.058;13.826;2023-08-06T06:27:03;16.80;99.90
64620;DHT22;51029;51.058;13.826;2023-08-06T06:29:29;16.90;99.90
64620;DHT22;51029;51.058;13.826;2023-08-06T06:31:54;17.10;99.90
64620;DHT22;51029;51.058;13.826;2023-08-06T06:34:20;17.10;99.90
64620;DHT22;51029;51.058;13.826;2023-08-06T06:36:46;17.10;99.90
64620;DHT22;51029;51.058;13.826;2023-08-06T06:39:12;17.00;99.90
64620;DHT22;51029;51.058;13.826;2023-08-06T06:41:37;17.10;99.90
64620;DHT22;51029;51.058;13.826;2023-08-06T06:44:03;17.20;99.90
64620;DHT22;51029;51.058;13.826;2023-08-06T06:46:28;17.30;99.90
64620;DHT22;51029;51.058;13.826;2023-08-06T06:48:54;17.20;99.90
64620;DHT22;51029;51.058;13.826;2023-08-06T06:51:19;17.30;99.90
64620;DHT22;51029;51.058;13.826;2023-08-06T06:53:45;17.50;99.90
64620;DHT22;51029;51.058;13.826;2023-08-06T06:56:10;17.50;99.90
64620;DHT22;51029;51.058;13.826;2023-08-06T06:58:36;17.60;99.90
64620;DHT22;51029;51.058;13.826;2023-08-06T07:01:04;17.80;99.90
64620;DHT22;51029;51.058;13.826;2023-08-06T07:03:29;17.90;99.90
64620;DHT22;51029;51.058;13.826;2023-08-06T07:05:58;18.00;99.90
64620;DHT22;51029;51.058;13.826;2023-08-06T07:08:25;18.10;99.90
64620;DHT22;51029;51.058;13.826;2023-08-06T07:10:50;18.00;99.90
64620;DHT22;51029;51.058;13.826;2023-08-06T07:13:16;17.90;99.90
64620;DHT22;51029;51.058;13.826;2023-08-06T07:15:42;18.00;99.90
64620;DHT22;51029;51.058;13.826;2023-08-06T07:18:07;18.00;99.90
64620;DHT22;51029;51.058;13.826;2023-08-06T07:20:33;18.00;99.90
64620;DHT22;51029;51.058;13.826;2023-08-06T07:23:00;18.10;99.90
64620;DHT22;51029;51.058;13.826;2023-08-06T07:25:25;18.20;99.90
64620;DHT22;51029;51.058;13.826;2023-08-06T07:27:51;18.20;99.90
64620;DHT22;51029;51.058;13.826;2023-08-06T07:30:17;18.30;99.90
64620;DHT22;51029;51.058;13.826;2023-08-06T07:32:42;18.30;99.90
64620;DHT22;51029;51.058;13.826;2023-08-06T07:35:08;18.30;99.90
64620;DHT22;51029;51.058;13.826;2023-08-06T07:37:38;18.30;99.90
64620;DHT22;51029;51.058;13.826;2023-08-06T07:40:04;18.40;99.90
64620;DHT22;51029;51.058;13.826;2023-08-06T07:42:30;18.30;99.90
64620;DHT22;51029;51.058;13.826;2023-08-06T07:44:57;18.20;99.90
64620;DHT22;51029;51.058;13.826;2023-08-06T07:47:23;18.00;99.90
64620;DHT22;51029;51.058;13.826;2023-08-06T07:49:48;17.90;99.90
64620;DHT22;51029;51.058;13.826;2023-08-06T07:52:14;17.90;99.90
64620;DHT22;51029;51.058;13.826;2023-08-06T07:54:39;17.70;99.90
64620;DHT22;51029;51.058;13.826;2023-08-06T07:57:05;17.90;99.90
64620;DHT22;51029;51.058;13.826;2023-08-06T07:59:31;17.80;99.90
64620;DHT22;51029;51.058;13.826;2023-08-06T08:01:56;17.80;99.90
64620;DHT22;51029;51.058;13.826;2023-08-06T08:04:23;17.80;99.90
64620;DHT22;51029;51.058;13.826;2023-08-06T08:06:48;17.90;99.90
64620;DHT22;51029;51.058;13.826;2023-08-06T08:09:14;18.00;99.90
64620;DHT22;51029;51.058;13.826;2023-08-06T08:11:40;18.00;99.90
64620;DHT22;51029;51.058;13.826;2023-08-06T08:14:06;18.10;99.90
64620;DHT22;51029;51.058;13.826;2023-08-06T08:16:32;18.00;99.90
64620;DHT22;51029;51.058;13.826;2023-08-06T08:18:58;18.10;99.90
64620;DHT22;51029;51.058;13.826;2023-08-06T08:21:23;18.10;99.90
64620;DHT22;51029;51.058;13.826;2023-08-06T08:23:50;18.30;99.90
64620;DHT22;51029;51.058;13.826;2023-08-06T08:26:16;18.30;99.90
64620;DHT22;51029;51.058;13.826;2023-08-06T08:28:41;18.10;99.90
64620;DHT22;51029;51.058;13.826;2023-08-06T08:31:11;18.00;99.90
64620;DHT22;51029;51.058;13.826;2023-08-06T08:33:37;18.30;99.90
64620;DHT22;51029;51.058;13.826;2023-08-06T08:36:03;18.50;99.90
64620;DHT22;51029;51.058;13.826;2023-08-06T08:38:29;18.40;99.90
64620;DHT22;51029;51.058;13.826;2023-08-06T08:40:55;18.50;99.90
64620;DHT22;51029;51.058;13.826;2023-08-06T08:43:24;18.50;99.90
64620;DHT22;51029;51.058;13.826;2023-08-06T08:45:53;18.50;99.90
64620;DHT22;51029;51.058;13.826;2023-08-06T08:48:24;18.50;99.90
64620;DHT22;51029;51.058;13.826;2023-08-06T08:50:50;18.60;99.90
64620;DHT22;51029;51.058;13.826;2023-08-06T08:53:17;18.70;99.90
64620;DHT22;51029;51.058;13.826;2023-08-06T08:55:43;18.60;99.90
64620;DHT22;51029;51.058;13.826;2023-08-06T08:58:10;18.50;99.90
64620;DHT22;51029;51.058;13.826;2023-08-06T09:00:35;18.60;99.90
64620;DHT22;51029;51.058;13.826;2023-08-06T09:03:02;18.80;99.90
64620;DHT22;51029;51.058;13.826;2023-08-06T09:05:31;19.00;99.90
64620;DHT22;51029;51.058;13.826;2023-08-06T09:08:02;18.80;99.90
64620;DHT22;51029;51.058;13.826;2023-08-06T09:10:28;18.50;99.90
64620;DHT22;51029;51.058;13.826;2023-08-06T09:12:56;18.60;99.90
64620;DHT22;51029;51.058;13.826;2023-08-06T09:15:25;18.70;99.90
64620;DHT22;51029;51.058;13.826;2023-08-06T09:17:54;18.90;99.90
64620;DHT22;51029;51.058;13.826;2023-08-06T09:20:20;19.10;99.90
64620;DHT22;51029;51.058;13.826;2023-08-06T09:22:46;19.00;99.90
64620;DHT22;51029;51.058;13.826;2023-08-06T09:25:21;18.90;99.90
64620;DHT22;51029;51.058;13.826;2023-08-06T09:27:49;18.60;99.90
64620;DHT22;51029;51.058;13.826;2023-08-06T09:30:29;18.50;99.90
64620;DHT22;51029;51.058;13.826;2023-08-06T09:32:55;18.40;99.90
64620;DHT22;51029;51.058;13.826;2023-08-06T09:35:21;18.30;99.90
64620;DHT22;51029;51.058;13.826;2023-08-06T09:37:47;18.50;99.90
64620;DHT22;51029;51.058;13.826;2023-08-06T09:40:31;18.50;99.90
64620;DHT22;51029;51.058;13.826;2023-08-06T09:42:58;18.80;99.90
64620;DHT22;51029;51.058;13.826;2023-08-06T09:45:35;18.90;99.90
64620;DHT22;51029;51.058;13.826;2023-08-06T09:48:08;18.80;99.90
64620;DHT22;51029;51.058;13.826;2023-08-06T09:50:36;18.70;99.90
64620;DHT22;51029;51.058;13.826;2023-08-06T09:53:06;18.70;99.90
64620;DHT22;51029;51.058;13.826;2023-08-06T09:55:33;18.70;99.90
64620;DHT22;51029;51.058;13.826;2023-08-06T09:57:59;18.80;99.90
64620;DHT22;51029;51.058;13.826;2023-08-06T10:00:25;18.90;99.90
64620;DHT22;51029;51.058;13.826;2023-08-06T10:02:53;18.90;99.90
64620;DHT22;51029;51.058;13.826;2023-08-06T10:05:22;19.00;99.90
64620;DHT22;51029;51.058;13.826;2023-08-06T10:07:49;19.00;99.90
64620;DHT22;51029;51.058;13.826;2023-08-06T10:10:16;18.90;99.90
64620;DHT22;51029;51.058;13.826;2023-08-06T10:12:51;19.00;99.90
64620;DHT22;51029;51.058;13.826;2023-08-06T10:15:22;19.10;99.90
64620;DHT22;51029;51.058;13.826;2023-08-06T10:17:51;19.10;99.90
64620;DHT22;51029;51.058;13.826;2023-08-06T10:20:18;19.10;99.90
64620;DHT22;51029;51.058;13.826;2023-08-06T10:22:45;19.10;99.90
64620;DHT22;51029;51.058;13.826;2023-08-06T10:25:10;19.40;99.90
64620;DHT22;51029;51.058;13.826;2023-08-06T10:27:53;19.20;99.90
64620;DHT22;51029;51.058;13.826;2023-08-06T10:30:26;19.10;99.90
64620;DHT22;51029;51.058;13.826;2023-08-06T10:32:54;19.30;99.90
64620;DHT22;51029;51.058;13.826;2023-08-06T10:38:05;19.40;99.90
64620;DHT22;51029;51.058;13.826;2023-08-06T10:40:33;19.50;99.90
64620;DHT22;51029;51.058;13.826;2023-08-06T10:43:00;19.80;99.90
64620;DHT22;51029;51.058;13.826;2023-08-06T10:45:26;19.80;99.90
64620;DHT22;51029;51.058;13.826;2023-08-06T10:47:54;20.00;99.90
64620;DHT22;51029;51.058;13.826;2023-08-06T10:50:20;19.90;99.90
64620;DHT22;51029;51.058;13.826;2023-08-06T10:52:47;19.90;99.90
64620;DHT22;51029;51.058;13.826;2023-08-06T10:55:13;20.00;99.90
64620;DHT22;51029;51.058;13.826;2023-08-06T10:57:39;19.90;99.90
64620;DHT22;51029;51.058;13.826;2023-08-06T11:00:06;20.20;99.90
64620;DHT22;51029;51.058;13.826;2023-08-06T11:02:34;20.80;99.90
64620;DHT22;51029;51.058;13.826;2023-08-06T11:05:10;21.20;99.90
64620;DHT22;51029;51.058;13.826;2023-08-06T11:07:37;21.30;99.90
64620;DHT22;51029;51.058;13.826;2023-08-06T11:10:04;21.50;99.90
64620;DHT22;51029;51.058;13.826;2023-08-06T11:12:33;21.90;99.90
64620;DHT22;51029;51.058;13.826;2023-08-06T11:14:59;22.00;99.90
64620;DHT22;51029;51.058;13.826;2023-08-06T11:17:26;21.50;99.90
64620;DHT22;51029;51.058;13.826;2023-08-06T11:19:52;21.10;99.90
64620;DHT22;51029;51.058;13.826;2023-08-06T11:22:21;20.80;99.90
64620;DHT22;51029;51.058;13.826;2023-08-06T11:24:48;20.40;99.90
64620;DHT22;51029;51.058;13.826;2023-08-06T11:27:14;20.50;99.90
64620;DHT22;51029;51.058;13.826;2023-08-06T11:29:44;20.60;99.90
64620;DHT22;51029;51.058;13.826;2023-08-06T11:32:10;20.50;99.90
64620;DHT22;51029;51.058;13.826;2023-08-06T11:34:37;20.70;99.90
64620;DHT22;51029;51.058;13.826;2023-08-06T11:37:03;20.80;99.90
64620;DHT22;51029;51.058;13.826;2023-08-06T11:39:36;21.10;99.90
64620;DHT22;51029;51.058;13.826;2023-08-06T11:42:08;21.00;99.90
64620;DHT22;51029;51.058;13.826;2023-08-06T11:44:36;21.10;99.90
64620;DHT22;51029;51.058;13.826;2023-08-06T11:47:03;21.20;99.90
64620;DHT22;51029;51.058;13.826;2023-08-06T11:49:45;21.60;99.90
64620;DHT22;51029;51.058;13.826;2023-08-06T11:52:19;21.50;99.90
64620;DHT22;51029;51.058;13.826;2023-08-06T11:55:04;21.50;99.90
64620;DHT22;51029;51.058;13.826;2023-08-06T11:57:39;21.80;99.90
64620;DHT22;51029;51.058;13.826;2023-08-06T12:00:09;21.40;99.90
64620;DHT22;51029;51.058;13.826;2023-08-06T12:02:38;21.70;99.90
64620;DHT22;51029;51.058;13.826;2023-08-06T12:05:09;21.80;99.90
64620;DHT22;51029;51.058;13.826;2023-08-06T12:07:40;22.00;99.90
64620;DHT22;51029;51.058;13.826;2023-08-06T12:10:06;22.30;99.90
64620;DHT22;51029;51.058;13.826;2023-08-06T12:12:33;22.50;99.90
64620;DHT22;51029;51.058;13.826;2023-08-06T12:14:58;22.60;99.90
64620;DHT22;51029;51.058;13.826;2023-08-06T12:17:24;22.70;99.90
64620;DHT22;51029;51.058;13.826;2023-08-06T12:19:50;22.50;99.90
64620;DHT22;51029;51.058;13.826;2023-08-06T12:22:16;22.30;99.90
64620;DHT22;51029;51.058;13.826;2023-08-06T12:24:46;22.40;99.90
64620;DHT22;51029;51.058;13.826;2023-08-06T12:27:12;22.40;99.90
64620;DHT22;51029;51.058;13.826;2023-08-06T12:29:42;22.40;99.90
64620;DHT22;51029;51.058;13.826;2023-08-06T12:32:09;22.20;99.90
64620;DHT22;51029;51.058;13.826;2023-08-06T12:34:34;22.10;99.90
64620;DHT22;51029;51.058;13.826;2023-08-06T12:37:00;21.90;99.90
64620;DHT22;51029;51.058;13.826;2023-08-06T12:39:25;22.00;99.90
64620;DHT22;51029;51.058;13.826;2023-08-06T12:41:54;21.80;99.90
64620;DHT22;51029;51.058;13.826;2023-08-06T12:44:20;21.40;99.90
64620;DHT22;51029;51.058;13.826;2023-08-06T12:46:45;21.20;99.90
64620;DHT22;51029;51.058;13.826;2023-08-06T12:49:11;21.40;99.90
64620;DHT22;51029;51.058;13.826;2023-08-06T12:51:36;21.60;99.90
64620;DHT22;51029;51.058;13.826;2023-08-06T12:54:02;21.60;99.90
64620;DHT22;51029;51.058;13.826;2023-08-06T12:56:28;21.50;99.90
64620;DHT22;51029;51.058;13.826;2023-08-06T12:58:54;21.00;99.90
64620;DHT22;51029;51.058;13.826;2023-08-06T13:01:19;20.70;99.90
64620;DHT22;51029;51.058;13.826;2023-08-06T13:03:45;20.80;99.90
64620;DHT22;51029;51.058;13.826;2023-08-06T13:06:10;21.00;99.90
64620;DHT22;51029;51.058;13.826;2023-08-06T13:08:37;21.10;99.90
64620;DHT22;51029;51.058;13.826;2023-08-06T13:11:03;21.30;99.90
64620;DHT22;51029;51.058;13.826;2023-08-06T13:13:28;21.40;99.90
64620;DHT22;51029;51.058;13.826;2023-08-06T13:15:54;21.10;99.90
64620;DHT22;51029;51.058;13.826;2023-08-06T13:18:20;21.10;99.90
64620;DHT22;51029;51.058;13.826;2023-08-06T13:20:45;21.30;99.90
64620;DHT22;51029;51.058;13.826;2023-08-06T13:23:12;21.30;99.90
64620;DHT22;51029;51.058;13.826;2023-08-06T13:25:40;21.30;99.90
64620;DHT22;51029;51.058;13.826;2023-08-06T13:28:06;21.20;99.90
64620;DHT22;51029;51.058;13.826;2023-08-06T13:30:31;21.40;99.90
64620;DHT22;51029;51.058;13.826;2023-08-06T13:32:57;21.40;99.90
64620;DHT22;51029;51.058;13.826;2023-08-06T13:35:23;21.60;99.90
64620;DHT22;51029;51.058;13.826;2023-08-06T13:37:49;21.80;99.90
64620;DHT22;51029;51.058;13.826;2023-08-06T13:40:15;21.90;99.90
64620;DHT22;51029;51.058;13.826;2023-08-06T13:42:40;22.20;99.90
64620;DHT22;51029;51.058;13.826;2023-08-06T13:45:07;22.30;99.90
64620;DHT22;51029;51.058;13.826;2023-08-06T13:47:32;22.30;99.90
64620;DHT22;51029;51.058;13.826;2023-08-06T13:49:58;22.40;99.90
64620;DHT22;51029;51.058;13.826;2023-08-06T13:52:25;22.70;99.90
64620;DHT22;51029;51.058;13.826;2023-08-06T13:54:52;22.70;99.90
64620;DHT22;51029;51.058;13.826;2023-08-06T13:57:17;22.60;99.90
64620;DHT22;51029;51.058;13.826;2023-08-06T13:59:43;22.70;99.90
64620;DHT22;51029;51.058;13.826;2023-08-06T14:02:09;22.90;99.90
64620;DHT22;51029;51.058;13.826;2023-08-06T14:04:35;23.00;99.90
64620;DHT22;51029;51.058;13.826;2023-08-06T14:07:03;22.80;99.90
64620;DHT22;51029;51.058;13.826;2023-08-06T14:09:28;22.50;99.90
64620;DHT22;51029;51.058;13.826;2023-08-06T14:11:54;22.60;99.90
64620;DHT22;51029;51.058;13.826;2023-08-06T14:14:19;22.70;99.90
64620;DHT22;51029;51.058;13.826;2023-08-06T14:16:54;22.80;99.90
64620;DHT22;51029;51.058;13.826;2023-08-06T14:19:20;22.70;99.90
64620;DHT22;51029;51.058;13.826;2023-08-06T14:21:46;22.70;99.90
64620;DHT22;51029;51.058;13.826;2023-08-06T14:24:11;22.60;99.90
64620;DHT22;51029;51.058;13.826;2023-08-06T14:26:37;22.40;99.90
64620;DHT22;51029;51.058;13.826;2023-08-06T14:29:03;22.40;99.90
64620;DHT22;51029;51.058;13.826;2023-08-06T14:31:29;22.30;99.90
64620;DHT22;51029;51.058;13.826;2023-08-06T14:33:55;22.40;99.90
64620;DHT22;51029;51.058;13.826;2023-08-06T14:36:20;22.40;99.90
64620;DHT22;51029;51.058;13.826;2023-08-06T14:38:46;22.20;99.90
64620;DHT22;51029;51.058;13.826;2023-08-06T14:41:11;22.20;99.90
64620;DHT22;51029;51.058;13.826;2023-08-06T14:43:37;22.10;99.90
64620;DHT22;51029;51.058;13.826;2023-08-06T14:46:03;22.20;99.90
64620;DHT22;51029;51.058;13.826;2023-08-06T14:48:29;22.40;99.90
64620;DHT22;51029;51.058;13.826;2023-08-06T14:50:55;22.50;99.90
64620;DHT22;51029;51.058;13.826;2023-08-06T14:53:20;22.50;99.90
64620;DHT22;51029;51.058;13.826;2023-08-06T14:55:46;22.60;99.90
64620;DHT22;51029;51.058;13.826;2023-08-06T14:58:12;22.70;99.90
64620;DHT22;51029;51.058;13.826;2023-08-06T15:00:37;22.80;99.90
64620;DHT22;51029;51.058;13.826;2023-08-06T15:03:03;22.80;99.90
64620;DHT22;51029;51.058;13.826;2023-08-06T15:05:28;22.80;99.90
64620;DHT22;51029;51.058;13.826;2023-08-06T15:07:54;22.80;99.90
64620;DHT22;51029;51.058;13.826;2023-08-06T15:10:20;22.70;99.90
64620;DHT22;51029;51.058;13.826;2023-08-06T15:12:45;22.70;99.90
64620;DHT22;51029;51.058;13.826;2023-08-06T15:15:11;22.70;99.90
64620;DHT22;51029;51.058;13.826;2023-08-06T15:17:36;22.80;99.90
64620;DHT22;51029;51.058;13.826;2023-08-06T15:20:03;22.90;99.90